sensor_id;sensor_type;location;lat;lon;timestamp;P1;durP1;ratioP1;P2;durP2;ratioP2
77722;SDS011;67811;42.656;23.394;2023-12-07T00:03:22;17.70;;;7.60;;
77722;SDS011;67811;42.656;23.394;2023-12-07T00:07:27;15.37;;;8.00;;
77722;SDS011;67811;42.656;23.394;2023-12-07T00:11:32;20.23;;;9.10;;
77722;SDS011;67811;42.656;23.394;2023-12-07T00:15:37;18.10;;;8.83;;
77722;SDS011;67811;42.656;23.394;2023-12-07T00:19:43;21.00;;;10.07;;
77722;SDS011;67811;42.656;23.394;2023-12-07T00:23:48;22.03;;;10.30;;
77722;SDS011;67811;42.656;23.394;2023-12-07T00:27:53;23.17;;;10.47;;
77722;SDS011;67811;42.656;23.394;2023-12-07T00:31:59;24.27;;;10.73;;
77722;SDS011;67811;42.656;23.394;2023-12-07T00:36:04;20.13;;;9.43;;
77722;SDS011;67811;42.656;23.394;2023-12-07T00:40:10;23.98;;;10.43;;
77722;SDS011;67811;42.656;23.394;2023-12-07T00:44:15;20.30;;;10.67;;
77722;SDS011;67811;42.656;23.394;2023-12-07T00:48:20;15.17;;;8.33;;
77722;SDS011;67811;42.656;23.394;2023-12-07T00:52:26;17.73;;;9.40;;
77722;SDS011;67811;42.656;23.394;2023-12-07T00:56:31;24.80;;;11.73;;
77722;SDS011;67811;42.656;23.394;2023-12-07T01:00:36;95.30;;;33.40;;
77722;SDS011;67811;42.656;23.394;2023-12-07T01:04:42;39.53;;;17.03;;
77722;SDS011;67811;42.656;23.394;2023-12-07T01:08:47;21.57;;;11.13;;
77722;SDS011;67811;42.656;23.394;2023-12-07T01:12:52;20.50;;;9.40;;
77722;SDS011;67811;42.656;23.394;2023-12-07T01:16:57;22.40;;;9.63;;
77722;SDS011;67811;42.656;23.394;2023-12-07T01:21:03;20.93;;;10.57;;
77722;SDS011;67811;42.656;23.394;2023-12-07T01:25:08;21.65;;;10.45;;
77722;SDS011;67811;42.656;23.394;2023-12-07T01:29:14;23.90;;;9.85;;
77722;SDS011;67811;42.656;23.394;2023-12-07T01:33:19;20.87;;;9.70;;
77722;SDS011;67811;42.656;23.394;2023-12-07T01:37:25;19.08;;;10.88;;
77722;SDS011;67811;42.656;23.394;2023-12-07T01:41:30;22.93;;;10.00;;
77722;SDS011;67811;42.656;23.394;2023-12-07T01:45:35;22.67;;;10.60;;
77722;SDS011;67811;42.656;23.394;2023-12-07T01:49:40;21.80;;;10.03;;
77722;SDS011;67811;42.656;23.394;2023-12-07T01:53:47;22.08;;;11.45;;
77722;SDS011;67811;42.656;23.394;2023-12-07T01:57:53;20.85;;;10.02;;
77722;SDS011;67811;42.656;23.394;2023-12-07T02:01:58;20.83;;;10.17;;
77722;SDS011;67811;42.656;23.394;2023-12-07T02:06:03;20.90;;;10.30;;
77722;SDS011;67811;42.656;23.394;2023-12-07T02:10:12;20.65;;;10.55;;
77722;SDS011;67811;42.656;23.394;2023-12-07T02:14:17;20.17;;;10.35;;
77722;SDS011;67811;42.656;23.394;2023-12-07T02:18:28;23.43;;;9.63;;
77722;SDS011;67811;42.656;23.394;2023-12-07T02:22:46;19.25;;;9.70;;
77722;SDS011;67811;42.656;23.394;2023-12-07T02:26:57;19.85;;;9.45;;
77722;SDS011;67811;42.656;23.394;2023-12-07T02:31:02;22.50;;;11.17;;
77722;SDS011;67811;42.656;23.394;2023-12-07T02:35:08;23.20;;;10.87;;
77722;SDS011;67811;42.656;23.394;2023-12-07T02:39:14;23.40;;;11.13;;
77722;SDS011;67811;42.656;23.394;2023-12-07T02:43:20;17.27;;;9.63;;
77722;SDS011;67811;42.656;23.394;2023-12-07T02:47:27;19.42;;;9.98;;
77722;SDS011;67811;42.656;23.394;2023-12-07T02:51:32;22.10;;;9.77;;
77722;SDS011;67811;42.656;23.394;2023-12-07T02:55:37;22.63;;;10.87;;
77722;SDS011;67811;42.656;23.394;2023-12-07T02:59:43;21.47;;;10.17;;
77722;SDS011;67811;42.656;23.394;2023-12-07T03:03:48;21.10;;;10.73;;
77722;SDS011;67811;42.656;23.394;2023-12-07T03:07:53;20.63;;;9.47;;
77722;SDS011;67811;42.656;23.394;2023-12-07T03:11:58;18.97;;;9.60;;
77722;SDS011;67811;42.656;23.394;2023-12-07T03:16:06;20.43;;;10.07;;
77722;SDS011;67811;42.656;23.394;2023-12-07T03:20:12;19.75;;;9.30;;
77722;SDS011;67811;42.656;23.394;2023-12-07T03:24:18;20.57;;;9.33;;
77722;SDS011;67811;42.656;23.394;2023-12-07T03:28:23;21.57;;;9.80;;
77722;SDS011;67811;42.656;23.394;2023-12-07T03:32:28;18.50;;;9.83;;
77722;SDS011;67811;42.656;23.394;2023-12-07T03:36:33;20.33;;;11.67;;
77722;SDS011;67811;42.656;23.394;2023-12-07T03:40:39;21.80;;;11.20;;
77722;SDS011;67811;42.656;23.394;2023-12-07T03:44:44;22.50;;;9.77;;
77722;SDS011;67811;42.656;23.394;2023-12-07T03:48:49;20.17;;;9.20;;
77722;SDS011;67811;42.656;23.394;2023-12-07T03:52:55;17.80;;;9.13;;
77722;SDS011;67811;42.656;23.394;2023-12-07T03:57:00;14.67;;;8.00;;
77722;SDS011;67811;42.656;23.394;2023-12-07T04:01:05;18.23;;;9.07;;
77722;SDS011;67811;42.656;23.394;2023-12-07T04:05:11;15.17;;;7.80;;
77722;SDS011;67811;42.656;23.394;2023-12-07T04:09:16;17.10;;;8.97;;
77722;SDS011;67811;42.656;23.394;2023-12-07T04:13:21;15.73;;;7.97;;
77722;SDS011;67811;42.656;23.394;2023-12-07T04:17:27;15.40;;;8.47;;
77722;SDS011;67811;42.656;23.394;2023-12-07T04:21:32;17.63;;;8.20;;
77722;SDS011;67811;42.656;23.394;2023-12-07T04:25:37;14.23;;;7.43;;
77722;SDS011;67811;42.656;23.394;2023-12-07T04:29:42;16.10;;;7.53;;
77722;SDS011;67811;42.656;23.394;2023-12-07T04:33:48;12.67;;;6.80;;
77722;SDS011;67811;42.656;23.394;2023-12-07T04:37:53;19.60;;;8.63;;
77722;SDS011;67811;42.656;23.394;2023-12-07T04:41:59;16.77;;;8.80;;
77722;SDS011;67811;42.656;23.394;2023-12-07T04:46:04;18.10;;;8.90;;
77722;SDS011;67811;42.656;23.394;2023-12-07T04:50:09;16.33;;;7.80;;
77722;SDS011;67811;42.656;23.394;2023-12-07T04:54:15;18.70;;;8.90;;
77722;SDS011;67811;42.656;23.394;2023-12-07T04:58:20;22.30;;;8.90;;
77722;SDS011;67811;42.656;23.394;2023-12-07T05:02:25;19.63;;;9.60;;
77722;SDS011;67811;42.656;23.394;2023-12-07T05:06:31;21.90;;;11.10;;
77722;SDS011;67811;42.656;23.394;2023-12-07T05:10:36;19.67;;;9.55;;
77722;SDS011;67811;42.656;23.394;2023-12-07T05:14:42;21.10;;;10.07;;
77722;SDS011;67811;42.656;23.394;2023-12-07T05:18:47;20.50;;;10.80;;
77722;SDS011;67811;42.656;23.394;2023-12-07T05:22:52;22.50;;;9.90;;
77722;SDS011;67811;42.656;23.394;2023-12-07T05:26:58;17.77;;;8.10;;
77722;SDS011;67811;42.656;23.394;2023-12-07T05:31:03;20.07;;;10.57;;
77722;SDS011;67811;42.656;23.394;2023-12-07T05:35:08;21.90;;;9.13;;
77722;SDS011;67811;42.656;23.394;2023-12-07T05:39:14;15.97;;;7.87;;
77722;SDS011;67811;42.656;23.394;2023-12-07T05:43:19;20.27;;;9.30;;
77722;SDS011;67811;42.656;23.394;2023-12-07T05:47:25;23.27;;;10.07;;
77722;SDS011;67811;42.656;23.394;2023-12-07T05:51:31;17.88;;;9.32;;
77722;SDS011;67811;42.656;23.394;2023-12-07T05:55:37;19.60;;;9.33;;
77722;SDS011;67811;42.656;23.394;2023-12-07T05:59:43;20.63;;;10.02;;
77722;SDS011;67811;42.656;23.394;2023-12-07T06:03:48;18.93;;;9.10;;
77722;SDS011;67811;42.656;23.394;2023-12-07T06:07:54;23.00;;;9.23;;
77722;SDS011;67811;42.656;23.394;2023-12-07T06:11:59;18.27;;;8.20;;
77722;SDS011;67811;42.656;23.394;2023-12-07T06:16:05;22.13;;;10.25;;
77722;SDS011;67811;42.656;23.394;2023-12-07T06:20:10;20.43;;;9.00;;
77722;SDS011;67811;42.656;23.394;2023-12-07T06:24:16;15.48;;;9.05;;
77722;SDS011;67811;42.656;23.394;2023-12-07T06:28:21;15.47;;;8.20;;
77722;SDS011;67811;42.656;23.394;2023-12-07T06:32:26;14.27;;;8.17;;
77722;SDS011;67811;42.656;23.394;2023-12-07T06:36:32;18.93;;;9.50;;
77722;SDS011;67811;42.656;23.394;2023-12-07T06:40:37;19.07;;;9.03;;
77722;SDS011;67811;42.656;23.394;2023-12-07T06:44:48;18.37;;;8.70;;
77722;SDS011;67811;42.656;23.394;2023-12-07T06:48:54;15.98;;;7.93;;
77722;SDS011;67811;42.656;23.394;2023-12-07T06:52:59;16.60;;;7.23;;
77722;SDS011;67811;42.656;23.394;2023-12-07T06:57:05;18.27;;;8.70;;
77722;SDS011;67811;42.656;23.394;2023-12-07T07:01:10;20.27;;;9.15;;
77722;SDS011;67811;42.656;23.394;2023-12-07T07:05:15;14.80;;;8.00;;
77722;SDS011;67811;42.656;23.394;2023-12-07T07:09:21;14.17;;;7.03;;
77722;SDS011;67811;42.656;23.394;2023-12-07T07:13:26;18.67;;;8.00;;
77722;SDS011;67811;42.656;23.394;2023-12-07T07:17:31;12.27;;;6.83;;
77722;SDS011;67811;42.656;23.394;2023-12-07T07:21:36;16.27;;;7.73;;
77722;SDS011;67811;42.656;23.394;2023-12-07T07:25:42;16.17;;;7.83;;
77722;SDS011;67811;42.656;23.394;2023-12-07T07:29:47;14.47;;;6.43;;
77722;SDS011;67811;42.656;23.394;2023-12-07T07:33:52;13.33;;;7.20;;
77722;SDS011;67811;42.656;23.394;2023-12-07T07:37:58;15.10;;;8.00;;
77722;SDS011;67811;42.656;23.394;2023-12-07T07:42:03;13.47;;;6.80;;
77722;SDS011;67811;42.656;23.394;2023-12-07T07:46:08;11.97;;;6.60;;
77722;SDS011;67811;42.656;23.394;2023-12-07T07:50:14;12.73;;;5.90;;
77722;SDS011;67811;42.656;23.394;2023-12-07T07:54:19;14.63;;;7.13;;
77722;SDS011;67811;42.656;23.394;2023-12-07T07:58:24;15.53;;;7.40;;
77722;SDS011;67811;42.656;23.394;2023-12-07T08:02:29;11.97;;;6.97;;
77722;SDS011;67811;42.656;23.394;2023-12-07T08:06:35;14.80;;;7.20;;
77722;SDS011;67811;42.656;23.394;2023-12-07T08:10:40;16.00;;;8.33;;
77722;SDS011;67811;42.656;23.394;2023-12-07T08:14:45;17.63;;;9.03;;
77722;SDS011;67811;42.656;23.394;2023-12-07T08:18:51;17.37;;;8.23;;
77722;SDS011;67811;42.656;23.394;2023-12-07T08:22:56;13.90;;;7.63;;
77722;SDS011;67811;42.656;23.394;2023-12-07T08:27:01;13.33;;;6.57;;
77722;SDS011;67811;42.656;23.394;2023-12-07T08:31:07;10.13;;;5.40;;
77722;SDS011;67811;42.656;23.394;2023-12-07T08:35:12;7.88;;;4.95;;
77722;SDS011;67811;42.656;23.394;2023-12-07T08:39:18;8.83;;;5.33;;
77722;SDS011;67811;42.656;23.394;2023-12-07T08:43:23;9.07;;;5.23;;
77722;SDS011;67811;42.656;23.394;2023-12-07T08:47:28;8.98;;;3.85;;
77722;SDS011;67811;42.656;23.394;2023-12-07T08:51:34;9.17;;;4.60;;
77722;SDS011;67811;42.656;23.394;2023-12-07T08:55:39;6.93;;;3.60;;
77722;SDS011;67811;42.656;23.394;2023-12-07T08:59:44;9.57;;;5.20;;
77722;SDS011;67811;42.656;23.394;2023-12-07T09:03:50;8.53;;;4.43;;
77722;SDS011;67811;42.656;23.394;2023-12-07T09:07:55;7.83;;;3.53;;
77722;SDS011;67811;42.656;23.394;2023-12-07T09:12:01;6.30;;;3.38;;
77722;SDS011;67811;42.656;23.394;2023-12-07T09:16:06;7.03;;;3.37;;
77722;SDS011;67811;42.656;23.394;2023-12-07T09:20:12;5.85;;;3.03;;
77722;SDS011;67811;42.656;23.394;2023-12-07T09:24:17;7.53;;;4.00;;
77722;SDS011;67811;42.656;23.394;2023-12-07T09:28:22;8.77;;;4.00;;
77722;SDS011;67811;42.656;23.394;2023-12-07T09:32:28;6.47;;;3.77;;
77722;SDS011;67811;42.656;23.394;2023-12-07T09:36:33;6.33;;;3.87;;
77722;SDS011;67811;42.656;23.394;2023-12-07T09:40:38;7.07;;;3.97;;
77722;SDS011;67811;42.656;23.394;2023-12-07T09:44:44;5.37;;;2.90;;
77722;SDS011;67811;42.656;23.394;2023-12-07T09:48:49;4.60;;;3.00;;
77722;SDS011;67811;42.656;23.394;2023-12-07T09:52:55;6.57;;;3.57;;
77722;SDS011;67811;42.656;23.394;2023-12-07T09:57:02;5.90;;;3.00;;
77722;SDS011;67811;42.656;23.394;2023-12-07T10:01:07;4.75;;;2.80;;
77722;SDS011;67811;42.656;23.394;2023-12-07T10:05:13;5.10;;;2.30;;
77722;SDS011;67811;42.656;23.394;2023-12-07T10:09:20;3.60;;;2.20;;
77722;SDS011;67811;42.656;23.394;2023-12-07T10:13:25;4.43;;;2.60;;
77722;SDS011;67811;42.656;23.394;2023-12-07T10:22:01;4.07;;;1.80;;
77722;SDS011;67811;42.656;23.394;2023-12-07T10:26:18;2.67;;;1.42;;
77722;SDS011;67811;42.656;23.394;2023-12-07T10:30:23;2.17;;;1.30;;
77722;SDS011;67811;42.656;23.394;2023-12-07T10:34:28;7.00;;;2.87;;
77722;SDS011;67811;42.656;23.394;2023-12-07T10:38:34;6.40;;;2.00;;
77722;SDS011;67811;42.656;23.394;2023-12-07T10:42:40;4.03;;;2.00;;
77722;SDS011;67811;42.656;23.394;2023-12-07T10:46:47;4.43;;;2.08;;
77722;SDS011;67811;42.656;23.394;2023-12-07T10:50:53;3.45;;;1.85;;
77722;SDS011;67811;42.656;23.394;2023-12-07T10:55:05;3.83;;;2.10;;
77722;SDS011;67811;42.656;23.394;2023-12-07T10:59:12;4.13;;;1.98;;
77722;SDS011;67811;42.656;23.394;2023-12-07T11:03:18;3.50;;;1.80;;
77722;SDS011;67811;42.656;23.394;2023-12-07T11:07:24;4.20;;;2.07;;
77722;SDS011;67811;42.656;23.394;2023-12-07T11:11:52;3.15;;;1.77;;
77722;SDS011;67811;42.656;23.394;2023-12-07T11:16:04;3.58;;;1.63;;
77722;SDS011;67811;42.656;23.394;2023-12-07T11:20:12;3.58;;;2.15;;
77722;SDS011;67811;42.656;23.394;2023-12-07T11:24:23;4.72;;;2.45;;
77722;SDS011;67811;42.656;23.394;2023-12-07T11:28:35;4.40;;;2.47;;
77722;SDS011;67811;42.656;23.394;2023-12-07T11:32:41;3.33;;;1.70;;
77722;SDS011;67811;42.656;23.394;2023-12-07T11:36:47;4.15;;;2.25;;
77722;SDS011;67811;42.656;23.394;2023-12-07T11:40:52;3.37;;;1.80;;
77722;SDS011;67811;42.656;23.394;2023-12-07T11:44:59;3.72;;;1.55;;
77722;SDS011;67811;42.656;23.394;2023-12-07T11:49:06;4.65;;;2.20;;
77722;SDS011;67811;42.656;23.394;2023-12-07T11:53:12;4.07;;;2.10;;
77722;SDS011;67811;42.656;23.394;2023-12-07T11:57:18;4.37;;;2.50;;
77722;SDS011;67811;42.656;23.394;2023-12-07T12:01:26;4.43;;;2.30;;
77722;SDS011;67811;42.656;23.394;2023-12-07T12:05:33;3.83;;;2.10;;
77722;SDS011;67811;42.656;23.394;2023-12-07T12:09:38;3.63;;;1.77;;
77722;SDS011;67811;42.656;23.394;2023-12-07T12:13:44;3.70;;;2.20;;
77722;SDS011;67811;42.656;23.394;2023-12-07T12:17:50;2.50;;;1.63;;
77722;SDS011;67811;42.656;23.394;2023-12-07T12:21:55;2.97;;;1.73;;
77722;SDS011;67811;42.656;23.394;2023-12-07T12:26:01;6.03;;;2.23;;
77722;SDS011;67811;42.656;23.394;2023-12-07T12:30:07;5.75;;;2.60;;
77722;SDS011;67811;42.656;23.394;2023-12-07T12:34:13;3.92;;;2.45;;
77722;SDS011;67811;42.656;23.394;2023-12-07T12:38:18;3.57;;;2.03;;
77722;SDS011;67811;42.656;23.394;2023-12-07T12:42:23;5.20;;;2.80;;
77722;SDS011;67811;42.656;23.394;2023-12-07T12:46:28;3.60;;;1.90;;
77722;SDS011;67811;42.656;23.394;2023-12-07T12:50:37;4.90;;;2.20;;
77722;SDS011;67811;42.656;23.394;2023-12-07T12:54:44;4.45;;;1.98;;
77722;SDS011;67811;42.656;23.394;2023-12-07T12:58:50;2.93;;;1.53;;
77722;SDS011;67811;42.656;23.394;2023-12-07T13:02:56;8.00;;;4.55;;
77722;SDS011;67811;42.656;23.394;2023-12-07T13:07:01;5.13;;;3.27;;
77722;SDS011;67811;42.656;23.394;2023-12-07T13:11:06;5.13;;;2.83;;
77722;SDS011;67811;42.656;23.394;2023-12-07T13:15:12;4.55;;;2.78;;
77722;SDS011;67811;42.656;23.394;2023-12-07T13:19:17;4.53;;;2.77;;
77722;SDS011;67811;42.656;23.394;2023-12-07T13:23:23;6.13;;;2.77;;
77722;SDS011;67811;42.656;23.394;2023-12-07T13:27:28;5.43;;;3.30;;
77722;SDS011;67811;42.656;23.394;2023-12-07T13:31:34;2.90;;;1.80;;
77722;SDS011;67811;42.656;23.394;2023-12-07T13:35:39;7.25;;;3.67;;
77722;SDS011;67811;42.656;23.394;2023-12-07T13:39:44;6.97;;;3.40;;
77722;SDS011;67811;42.656;23.394;2023-12-07T13:43:49;6.27;;;3.33;;
77722;SDS011;67811;42.656;23.394;2023-12-07T13:47:55;5.37;;;3.27;;
77722;SDS011;67811;42.656;23.394;2023-12-07T13:52:03;5.10;;;3.33;;
77722;SDS011;67811;42.656;23.394;2023-12-07T13:56:09;5.50;;;3.80;;
77722;SDS011;67811;42.656;23.394;2023-12-07T14:00:14;4.07;;;2.27;;
77722;SDS011;67811;42.656;23.394;2023-12-07T14:04:19;4.93;;;3.17;;
77722;SDS011;67811;42.656;23.394;2023-12-07T14:08:25;7.60;;;4.00;;
77722;SDS011;67811;42.656;23.394;2023-12-07T14:12:30;4.03;;;2.53;;
77722;SDS011;67811;42.656;23.394;2023-12-07T14:16:35;4.77;;;3.20;;
77722;SDS011;67811;42.656;23.394;2023-12-07T14:20:41;6.33;;;3.77;;
77722;SDS011;67811;42.656;23.394;2023-12-07T14:24:46;6.57;;;4.43;;
77722;SDS011;67811;42.656;23.394;2023-12-07T14:28:52;7.97;;;4.40;;
77722;SDS011;67811;42.656;23.394;2023-12-07T14:32:57;7.73;;;4.53;;
77722;SDS011;67811;42.656;23.394;2023-12-07T14:37:05;6.47;;;3.77;;
77722;SDS011;67811;42.656;23.394;2023-12-07T14:41:10;8.52;;;5.20;;
77722;SDS011;67811;42.656;23.394;2023-12-07T14:45:16;7.33;;;3.90;;
77722;SDS011;67811;42.656;23.394;2023-12-07T14:49:21;7.13;;;4.37;;
77722;SDS011;67811;42.656;23.394;2023-12-07T14:53:26;6.13;;;3.97;;
77722;SDS011;67811;42.656;23.394;2023-12-07T14:57:32;4.03;;;2.63;;
77722;SDS011;67811;42.656;23.394;2023-12-07T15:01:37;4.07;;;2.90;;
77722;SDS011;67811;42.656;23.394;2023-12-07T15:05:46;6.22;;;4.25;;
77722;SDS011;67811;42.656;23.394;2023-12-07T15:13:57;10.15;;;5.78;;
77722;SDS011;67811;42.656;23.394;2023-12-07T15:18:02;8.63;;;5.43;;
77722;SDS011;67811;42.656;23.394;2023-12-07T15:22:10;7.10;;;3.87;;
77722;SDS011;67811;42.656;23.394;2023-12-07T15:26:16;7.25;;;3.83;;
77722;SDS011;67811;42.656;23.394;2023-12-07T15:30:21;11.20;;;7.00;;
77722;SDS011;67811;42.656;23.394;2023-12-07T15:34:26;9.82;;;6.00;;
77722;SDS011;67811;42.656;23.394;2023-12-07T15:38:32;8.80;;;5.20;;
77722;SDS011;67811;42.656;23.394;2023-12-07T15:42:37;9.17;;;5.77;;
77722;SDS011;67811;42.656;23.394;2023-12-07T15:46:43;7.93;;;5.80;;
77722;SDS011;67811;42.656;23.394;2023-12-07T15:50:49;10.07;;;5.57;;
77722;SDS011;67811;42.656;23.394;2023-12-07T15:54:54;9.82;;;5.63;;
77722;SDS011;67811;42.656;23.394;2023-12-07T15:58:59;9.37;;;6.57;;
77722;SDS011;67811;42.656;23.394;2023-12-07T16:03:05;7.97;;;4.83;;
77722;SDS011;67811;42.656;23.394;2023-12-07T16:07:10;12.93;;;11.40;;
77722;SDS011;67811;42.656;23.394;2023-12-07T16:11:15;12.13;;;5.27;;
77722;SDS011;67811;42.656;23.394;2023-12-07T16:15:21;11.87;;;6.53;;
77722;SDS011;67811;42.656;23.394;2023-12-07T16:19:26;10.10;;;5.23;;
77722;SDS011;67811;42.656;23.394;2023-12-07T16:23:32;12.57;;;5.78;;
77722;SDS011;67811;42.656;23.394;2023-12-07T16:27:37;6.87;;;3.43;;
77722;SDS011;67811;42.656;23.394;2023-12-07T16:31:42;9.17;;;5.07;;
77722;SDS011;67811;42.656;23.394;2023-12-07T16:35:49;7.05;;;4.13;;
77722;SDS011;67811;42.656;23.394;2023-12-07T16:39:55;8.90;;;4.97;;
77722;SDS011;67811;42.656;23.394;2023-12-07T16:44:00;10.50;;;5.37;;
77722;SDS011;67811;42.656;23.394;2023-12-07T16:48:05;8.37;;;4.83;;
77722;SDS011;67811;42.656;23.394;2023-12-07T16:52:11;7.60;;;3.88;;
77722;SDS011;67811;42.656;23.394;2023-12-07T16:56:16;9.10;;;5.47;;
77722;SDS011;67811;42.656;23.394;2023-12-07T17:00:21;6.37;;;4.00;;
77722;SDS011;67811;42.656;23.394;2023-12-07T17:04:27;5.10;;;2.83;;
77722;SDS011;67811;42.656;23.394;2023-12-07T17:08:32;7.20;;;4.87;;
77722;SDS011;67811;42.656;23.394;2023-12-07T17:12:37;8.23;;;4.80;;
77722;SDS011;67811;42.656;23.394;2023-12-07T17:16:43;6.70;;;4.40;;
77722;SDS011;67811;42.656;23.394;2023-12-07T17:20:48;6.50;;;3.63;;
77722;SDS011;67811;42.656;23.394;2023-12-07T17:24:54;7.03;;;3.92;;
77722;SDS011;67811;42.656;23.394;2023-12-07T17:29:00;9.83;;;4.30;;
77722;SDS011;67811;42.656;23.394;2023-12-07T17:33:05;9.33;;;5.53;;
77722;SDS011;67811;42.656;23.394;2023-12-07T17:37:11;7.57;;;3.83;;
77722;SDS011;67811;42.656;23.394;2023-12-07T17:41:16;7.13;;;4.50;;
77722;SDS011;67811;42.656;23.394;2023-12-07T17:45:22;7.53;;;3.60;;
77722;SDS011;67811;42.656;23.394;2023-12-07T17:49:27;5.83;;;3.67;;
77722;SDS011;67811;42.656;23.394;2023-12-07T17:53:32;4.97;;;3.20;;
77722;SDS011;67811;42.656;23.394;2023-12-07T17:57:38;7.33;;;3.80;;
77722;SDS011;67811;42.656;23.394;2023-12-07T18:01:43;9.33;;;5.43;;
77722;SDS011;67811;42.656;23.394;2023-12-07T18:05:48;6.13;;;3.40;;
77722;SDS011;67811;42.656;23.394;2023-12-07T18:14:54;6.55;;;3.42;;
77722;SDS011;67811;42.656;23.394;2023-12-07T18:18:59;4.68;;;2.55;;
77722;SDS011;67811;42.656;23.394;2023-12-07T18:23:04;5.30;;;3.17;;
77722;SDS011;67811;42.656;23.394;2023-12-07T18:27:09;5.30;;;3.30;;
77722;SDS011;67811;42.656;23.394;2023-12-07T18:31:15;8.43;;;4.60;;
77722;SDS011;67811;42.656;23.394;2023-12-07T18:35:20;6.30;;;3.63;;
77722;SDS011;67811;42.656;23.394;2023-12-07T18:39:25;9.00;;;5.03;;
77722;SDS011;67811;42.656;23.394;2023-12-07T18:43:31;9.03;;;4.90;;
77722;SDS011;67811;42.656;23.394;2023-12-07T18:47:36;12.17;;;5.60;;
77722;SDS011;67811;42.656;23.394;2023-12-07T18:51:41;10.67;;;6.20;;
77722;SDS011;67811;42.656;23.394;2023-12-07T18:55:46;9.60;;;5.23;;
77722;SDS011;67811;42.656;23.394;2023-12-07T18:59:52;7.50;;;4.33;;
77722;SDS011;67811;42.656;23.394;2023-12-07T19:03:57;6.20;;;3.97;;
77722;SDS011;67811;42.656;23.394;2023-12-07T19:08:02;9.00;;;5.07;;
77722;SDS011;67811;42.656;23.394;2023-12-07T19:12:08;10.23;;;6.07;;
77722;SDS011;67811;42.656;23.394;2023-12-07T19:16:13;6.93;;;4.33;;
77722;SDS011;67811;42.656;23.394;2023-12-07T19:20:19;12.40;;;5.70;;
77722;SDS011;67811;42.656;23.394;2023-12-07T19:24:24;12.13;;;6.23;;
77722;SDS011;67811;42.656;23.394;2023-12-07T19:28:29;10.00;;;6.57;;
77722;SDS011;67811;42.656;23.394;2023-12-07T19:32:34;11.87;;;7.60;;
77722;SDS011;67811;42.656;23.394;2023-12-07T19:36:40;11.83;;;6.57;;
77722;SDS011;67811;42.656;23.394;2023-12-07T19:40:46;12.00;;;6.05;;
77722;SDS011;67811;42.656;23.394;2023-12-07T19:44:51;9.73;;;5.93;;
77722;SDS011;67811;42.656;23.394;2023-12-07T19:48:56;16.10;;;8.40;;
77722;SDS011;67811;42.656;23.394;2023-12-07T19:53:02;12.23;;;6.20;;
77722;SDS011;67811;42.656;23.394;2023-12-07T19:57:07;13.50;;;6.77;;
77722;SDS011;67811;42.656;23.394;2023-12-07T20:01:12;10.60;;;5.70;;
77722;SDS011;67811;42.656;23.394;2023-12-07T20:05:18;11.20;;;6.47;;
77722;SDS011;67811;42.656;23.394;2023-12-07T20:09:23;12.40;;;6.50;;
77722;SDS011;67811;42.656;23.394;2023-12-07T20:13:28;12.70;;;6.60;;
77722;SDS011;67811;42.656;23.394;2023-12-07T20:17:34;11.03;;;6.37;;
77722;SDS011;67811;42.656;23.394;2023-12-07T20:21:42;13.90;;;8.30;;
77722;SDS011;67811;42.656;23.394;2023-12-07T20:25:48;14.95;;;7.97;;
77722;SDS011;67811;42.656;23.394;2023-12-07T20:29:53;14.23;;;7.77;;
77722;SDS011;67811;42.656;23.394;2023-12-07T20:33:58;13.07;;;6.87;;
77722;SDS011;67811;42.656;23.394;2023-12-07T20:38:06;11.97;;;6.20;;
77722;SDS011;67811;42.656;23.394;2023-12-07T20:42:11;15.02;;;8.40;;
77722;SDS011;67811;42.656;23.394;2023-12-07T20:46:17;9.50;;;4.70;;
77722;SDS011;67811;42.656;23.394;2023-12-07T20:50:22;14.17;;;7.73;;
77722;SDS011;67811;42.656;23.394;2023-12-07T20:54:28;12.50;;;6.13;;
77722;SDS011;67811;42.656;23.394;2023-12-07T20:58:33;13.07;;;6.30;;
77722;SDS011;67811;42.656;23.394;2023-12-07T21:02:38;13.53;;;7.23;;
77722;SDS011;67811;42.656;23.394;2023-12-07T21:06:43;11.43;;;6.40;;
77722;SDS011;67811;42.656;23.394;2023-12-07T21:10:49;14.23;;;6.80;;
77722;SDS011;67811;42.656;23.394;2023-12-07T21:14:54;15.53;;;6.10;;
77722;SDS011;67811;42.656;23.394;2023-12-07T21:18:59;15.60;;;8.87;;
77722;SDS011;67811;42.656;23.394;2023-12-07T21:23:05;11.98;;;6.63;;
77722;SDS011;67811;42.656;23.394;2023-12-07T21:27:10;10.67;;;6.40;;
77722;SDS011;67811;42.656;23.394;2023-12-07T21:31:19;11.47;;;6.57;;
77722;SDS011;67811;42.656;23.394;2023-12-07T21:35:27;12.15;;;5.90;;
77722;SDS011;67811;42.656;23.394;2023-12-07T21:39:33;17.20;;;7.13;;
77722;SDS011;67811;42.656;23.394;2023-12-07T21:43:39;15.98;;;9.02;;
77722;SDS011;67811;42.656;23.394;2023-12-07T21:47:44;11.17;;;6.67;;
77722;SDS011;67811;42.656;23.394;2023-12-07T21:51:49;12.57;;;6.80;;
77722;SDS011;67811;42.656;23.394;2023-12-07T21:55:55;9.83;;;5.10;;
77722;SDS011;67811;42.656;23.394;2023-12-07T22:00:00;10.70;;;6.03;;
77722;SDS011;67811;42.656;23.394;2023-12-07T22:04:05;15.80;;;7.80;;
77722;SDS011;67811;42.656;23.394;2023-12-07T22:08:11;13.23;;;6.67;;
77722;SDS011;67811;42.656;23.394;2023-12-07T22:12:16;11.85;;;6.88;;
77722;SDS011;67811;42.656;23.394;2023-12-07T22:16:21;11.47;;;6.00;;
77722;SDS011;67811;42.656;23.394;2023-12-07T22:20:27;12.07;;;6.23;;
77722;SDS011;67811;42.656;23.394;2023-12-07T22:24:32;10.67;;;6.60;;
77722;SDS011;67811;42.656;23.394;2023-12-07T22:28:37;11.73;;;6.40;;
77722;SDS011;67811;42.656;23.394;2023-12-07T22:32:43;12.00;;;6.60;;
77722;SDS011;67811;42.656;23.394;2023-12-07T22:36:49;12.25;;;7.03;;
77722;SDS011;67811;42.656;23.394;2023-12-07T22:40:54;13.10;;;6.83;;
77722;SDS011;67811;42.656;23.394;2023-12-07T22:44:59;12.57;;;7.40;;
77722;SDS011;67811;42.656;23.394;2023-12-07T22:49:05;12.37;;;6.70;;
77722;SDS011;67811;42.656;23.394;2023-12-07T22:53:10;8.87;;;5.30;;
77722;SDS011;67811;42.656;23.394;2023-12-07T22:57:15;7.73;;;4.83;;
77722;SDS011;67811;42.656;23.394;2023-12-07T23:01:20;11.20;;;5.37;;
77722;SDS011;67811;42.656;23.394;2023-12-07T23:05:26;13.13;;;7.30;;
77722;SDS011;67811;42.656;23.394;2023-12-07T23:09:31;13.77;;;7.47;;
77722;SDS011;67811;42.656;23.394;2023-12-07T23:13:36;13.00;;;6.73;;
77722;SDS011;67811;42.656;23.394;2023-12-07T23:17:42;13.23;;;6.13;;
77722;SDS011;67811;42.656;23.394;2023-12-07T23:21:47;11.93;;;6.43;;
77722;SDS011;67811;42.656;23.394;2023-12-07T23:25:52;13.77;;;7.07;;
77722;SDS011;67811;42.656;23.394;2023-12-07T23:29:58;13.47;;;8.20;;
77722;SDS011;67811;42.656;23.394;2023-12-07T23:34:03;9.27;;;5.37;;
77722;SDS011;67811;42.656;23.394;2023-12-07T23:38:08;8.57;;;5.13;;
77722;SDS011;67811;42.656;23.394;2023-12-07T23:42:14;16.03;;;6.57;;
77722;SDS011;67811;42.656;23.394;2023-12-07T23:46:19;11.10;;;5.30;;
77722;SDS011;67811;42.656;23.394;2023-12-07T23:50:24;11.83;;;6.03;;
77722;SDS011;67811;42.656;23.394;2023-12-07T23:54:29;13.80;;;6.50;;
77722;SDS011;67811;42.656;23.394;2023-12-07T23:58:35;12.97;;;6.33;;
